createdAt,value
2018-07-16T00:02:30.120Z,74.40
2018-07-16T00:07:59.333Z,74.50
2018-07-16T00:13:29.612Z,74.60
2018-07-16T00:18:59.839Z,74.60
2018-07-16T00:24:29.033Z,74.70
2018-07-16T00:30:02.979Z,74.60
2018-07-16T00:35:32.251Z,74.90
2018-07-16T00:41:01.483Z,74.90
2018-07-16T00:46:30.704Z,75.10
2018-07-16T00:51:59.896Z,75.10
2018-07-16T00:57:30.160Z,75.30
2018-07-16T01:02:59.353Z,75.30
2018-07-16T01:08:28.581Z,75.60
2018-07-16T01:13:58.858Z,75.60
2018-07-16T01:19:28.856Z,75.80
2018-07-16T01:25:00.016Z,75.80
2018-07-16T01:30:29.243Z,76.10
2018-07-16T01:35:58.441Z,76.20
2018-07-16T01:41:27.642Z,76.30
2018-07-16T01:47:03.495Z,76.40
2018-07-16T02:03:35.241Z,76.90
2018-07-16T02:09:04.863Z,76.80
2018-07-16T02:14:37.344Z,76.90
2018-07-16T02:20:08.392Z,77.20
2018-07-16T02:25:37.767Z,77.20
2018-07-16T02:31:07.018Z,77.10
2018-07-16T02:36:36.192Z,77.10
2018-07-16T02:42:06.156Z,77.20
2018-07-16T02:47:35.338Z,77.40
2018-07-16T02:53:14.409Z,77.40
2018-07-16T02:58:43.666Z,77.50
2018-07-16T03:04:15.369Z,77.70
2018-07-16T03:09:44.629Z,77.70
2018-07-16T03:15:14.883Z,77.90
2018-07-16T03:20:44.143Z,78.00
2018-07-16T03:26:13.355Z,78.00
2018-07-16T03:31:42.666Z,78.00
2018-07-16T03:37:11.836Z,77.90
2018-07-16T03:42:41.124Z,77.90
2018-07-16T03:48:10.419Z,77.80
2018-07-16T03:53:40.677Z,77.90
2018-07-16T03:59:09.961Z,77.90
2018-07-16T04:04:39.203Z,77.80
2018-07-16T04:10:08.688Z,77.90
2018-07-16T04:15:38.936Z,77.70
2018-07-16T04:21:08.146Z,77.70
2018-07-16T04:26:37.444Z,77.60
2018-07-16T04:32:07.789Z,77.60
2018-07-16T04:37:37.017Z,77.50
2018-07-16T04:43:07.375Z,77.50
2018-07-16T04:48:36.646Z,77.60
2018-07-16T04:59:40.184Z,77.60
2018-07-16T05:05:13.144Z,77.50
2018-07-16T05:10:42.365Z,77.80
2018-07-16T05:16:11.578Z,78.20
2018-07-16T05:21:41.109Z,78.60
2018-07-16T05:27:10.369Z,78.90
2018-07-16T05:32:39.842Z,79.20
2018-07-16T05:38:08.857Z,79.40
2018-07-16T05:43:38.085Z,79.80
2018-07-16T05:49:07.485Z,80.20
2018-07-16T05:54:36.713Z,80.70
2018-07-16T06:00:06.035Z,81.20
2018-07-16T06:05:35.276Z,81.20
2018-07-16T06:11:04.521Z,81.20
2018-07-16T06:16:33.821Z,81.20
2018-07-16T06:22:03.112Z,81.40
2018-07-16T06:27:32.348Z,81.40
2018-07-16T06:33:01.607Z,81.50
2018-07-16T06:38:30.829Z,81.60
2018-07-16T06:44:13.097Z,81.90
2018-07-16T06:49:42.299Z,81.90
2018-07-16T06:55:11.574Z,82.30
2018-07-16T07:00:40.900Z,81.90
2018-07-16T07:06:10.078Z,82.20
2018-07-16T07:11:39.440Z,82.10
2018-07-16T07:17:08.687Z,82.00
2018-07-16T07:22:37.959Z,82.40
2018-07-16T07:28:07.188Z,82.20
2018-07-16T07:33:36.408Z,82.30
2018-07-16T07:39:06.975Z,82.10
2018-07-16T07:44:36.319Z,82.30
2018-07-16T07:50:05.567Z,82.00
2018-07-16T08:01:03.883Z,82.80
2018-07-16T08:06:33.102Z,82.00
2018-07-16T08:12:02.455Z,81.70
2018-07-16T08:17:31.715Z,81.40
2018-07-16T08:23:00.947Z,81.10
2018-07-16T08:28:30.291Z,80.90
2018-07-16T08:33:59.540Z,80.20
2018-07-16T08:44:57.777Z,79.80
2018-07-16T08:50:26.989Z,78.70
2018-07-16T08:55:56.260Z,78.60
2018-07-16T09:01:25.471Z,77.50
2018-07-16T09:12:23.666Z,76.10
2018-07-16T09:17:52.902Z,75.20
2018-07-16T09:23:22.269Z,75.00
2018-07-16T09:28:51.517Z,73.70
2018-07-16T09:34:20.872Z,72.60
2018-07-16T09:39:50.180Z,72.10
2018-07-16T09:45:19.479Z,71.00
2018-07-16T09:50:48.823Z,70.00
2018-07-16T09:56:18.100Z,69.20
2018-07-16T10:01:52.509Z,68.10
2018-07-16T10:07:21.886Z,68.50
2018-07-16T10:12:51.120Z,68.00
2018-07-16T10:18:20.416Z,66.50
2018-07-16T10:23:49.762Z,66.10
2018-07-16T10:29:19.022Z,65.10
2018-07-16T10:34:48.285Z,64.30
2018-07-16T10:40:17.605Z,63.70
2018-07-16T10:51:15.864Z,63.50
2018-07-16T10:56:45.082Z,62.70
2018-07-16T11:02:14.306Z,62.20
2018-07-16T11:07:43.538Z,61.40
2018-07-16T11:13:13.857Z,59.90
2018-07-16T11:18:43.134Z,59.60
2018-07-16T11:24:12.325Z,59.70
2018-07-16T11:29:41.571Z,59.80
2018-07-16T11:35:10.799Z,59.80
2018-07-16T11:40:40.017Z,60.00
2018-07-16T11:46:09.287Z,60.80
2018-07-16T11:51:38.484Z,57.90
2018-07-16T11:57:08.119Z,57.80
2018-07-16T12:02:37.320Z,58.30
2018-07-16T12:08:06.607Z,57.30
2018-07-16T12:13:35.796Z,57.70
2018-07-16T12:19:05.060Z,56.70
2018-07-16T12:24:34.354Z,56.20
2018-07-16T12:30:03.690Z,55.00
2018-07-16T12:35:32.913Z,54.40
2018-07-16T12:41:02.137Z,54.60
2018-07-16T12:46:31.325Z,54.60
2018-07-16T12:52:00.554Z,54.90
2018-07-16T12:57:29.781Z,56.70
2018-07-16T13:02:59.002Z,55.30
2018-07-16T13:08:28.167Z,54.80
2018-07-16T13:13:57.952Z,54.60
2018-07-16T13:19:27.295Z,54.60
2018-07-16T13:24:56.508Z,54.10
2018-07-16T13:30:25.781Z,53.50
2018-07-16T13:35:54.978Z,52.40
2018-07-16T13:46:53.347Z,53.00
2018-07-16T13:52:22.529Z,52.80
2018-07-16T13:57:52.154Z,53.20
2018-07-16T14:03:21.915Z,52.80
2018-07-16T14:08:51.295Z,52.80
2018-07-16T14:14:20.698Z,52.10
2018-07-16T14:19:50.010Z,52.60
2018-07-16T14:25:19.407Z,52.70
2018-07-16T14:30:48.772Z,52.70
2018-07-16T14:36:18.277Z,52.20
2018-07-16T14:41:47.608Z,52.50
2018-07-16T14:47:16.994Z,52.90
2018-07-16T14:52:46.372Z,53.70
2018-07-16T14:58:15.645Z,53.30
2018-07-16T15:03:44.884Z,54.00
2018-07-16T15:09:14.117Z,53.90
2018-07-16T15:14:43.407Z,54.20
2018-07-16T15:20:12.637Z,54.50
2018-07-16T15:25:42.889Z,54.50
2018-07-16T15:31:12.121Z,54.40
2018-07-16T15:36:41.361Z,51.70
2018-07-16T15:42:10.651Z,52.00
2018-07-16T15:47:39.873Z,53.00
2018-07-16T15:53:09.166Z,54.00
2018-07-16T15:58:38.420Z,55.00
2018-07-16T16:04:07.685Z,55.60
2018-07-16T16:09:38.985Z,55.90
2018-07-16T16:15:08.196Z,56.10
2018-07-16T16:20:37.411Z,56.90
2018-07-16T16:26:06.945Z,58.30
2018-07-16T16:31:36.748Z,58.30
2018-07-16T16:37:06.131Z,58.00
2018-07-16T16:42:35.417Z,57.50
2018-07-16T16:48:04.759Z,58.00
2018-07-16T16:53:34.016Z,57.10
2018-07-16T16:59:03.311Z,56.40
2018-07-16T17:04:32.583Z,56.50
2018-07-16T17:10:02.839Z,56.10
2018-07-16T17:15:32.212Z,55.90
2018-07-16T17:21:01.497Z,55.90
2018-07-16T17:26:32.864Z,56.00
2018-07-16T17:32:03.551Z,56.70
2018-07-16T17:37:32.966Z,56.10
2018-07-16T17:43:06.708Z,56.10
2018-07-16T17:48:36.015Z,56.10
2018-07-16T17:54:05.292Z,56.80
2018-07-16T17:59:35.916Z,57.60
2018-07-16T18:05:05.401Z,58.00
2018-07-16T18:10:39.077Z,58.20
2018-07-16T18:16:08.625Z,58.50
2018-07-16T18:21:37.917Z,58.80
2018-07-16T18:27:07.254Z,58.90
2018-07-16T18:32:36.464Z,59.10
2018-07-16T18:38:05.725Z,59.30
2018-07-16T18:43:34.987Z,60.20
2018-07-16T18:49:04.496Z,59.70
2018-07-16T18:54:33.887Z,60.00
2018-07-16T19:00:03.193Z,60.00
2018-07-16T19:05:32.441Z,60.50
2018-07-16T19:11:01.759Z,60.80
2018-07-16T19:16:33.718Z,60.90
2018-07-16T19:22:02.953Z,61.20
2018-07-16T19:27:32.213Z,61.30
2018-07-16T19:33:05.955Z,61.60
2018-07-16T19:38:37.617Z,61.90
2018-07-16T19:44:06.791Z,62.40
2018-07-16T19:49:36.115Z,62.80
2018-07-16T19:55:05.624Z,63.60
2018-07-16T20:00:35.070Z,64.00
2018-07-16T20:06:04.451Z,64.00
2018-07-16T20:11:33.903Z,64.40
2018-07-16T20:17:04.268Z,64.70
2018-07-16T20:22:33.588Z,65.20
2018-07-16T20:28:02.956Z,65.80
2018-07-16T20:33:32.319Z,66.40
2018-07-16T20:39:01.683Z,66.80
2018-07-16T20:44:32.035Z,67.70
2018-07-16T20:50:01.413Z,67.30
2018-07-16T20:55:31.258Z,67.70
2018-07-16T21:01:03.620Z,67.80
2018-07-16T21:06:33.051Z,70.90
2018-07-16T21:12:02.371Z,69.70
2018-07-16T21:17:31.838Z,69.40
2018-07-16T21:23:01.176Z,69.70
2018-07-16T21:28:30.385Z,69.80
2018-07-16T21:34:00.827Z,70.10
2018-07-16T21:39:30.194Z,70.60
2018-07-16T21:44:59.520Z,70.30
2018-07-16T21:50:28.719Z,70.60
2018-07-16T21:55:57.971Z,70.80
2018-07-16T22:01:27.220Z,71.20
2018-07-16T22:06:56.501Z,71.30
2018-07-16T22:12:25.692Z,71.50
2018-07-16T22:18:07.868Z,71.70
2018-07-16T22:23:37.285Z,72.10
2018-07-16T22:29:06.675Z,72.30
2018-07-16T22:34:35.945Z,72.60
2018-07-16T22:40:05.773Z,72.70
2018-07-16T22:45:35.072Z,72.80
2018-07-16T22:51:05.550Z,73.00
2018-07-16T22:56:34.836Z,73.40
2018-07-16T23:02:15.097Z,73.60
2018-07-16T23:07:44.361Z,74.00
2018-07-16T23:13:13.604Z,74.10
2018-07-16T23:18:42.838Z,74.30
2018-07-16T23:24:13.011Z,74.60
2018-07-16T23:29:42.503Z,74.60
2018-07-16T23:35:11.773Z,74.80
2018-07-16T23:40:41.074Z,74.80
2018-07-16T23:46:10.423Z,75.00
2018-07-16T23:51:39.745Z,75.30
2018-07-16T23:57:09.039Z,75.30
